Time,TemperatureF,DewpointF,PressureIn,WindDirection,WindDirectionDegrees,WindSpeedMPH,WindSpeedGustMPH,Humidity,HourlyPrecipIn,Conditions,Clouds,dailyrainin,SoftwareType,DateUTC
2013-06-09 00:02:00,58.9,58.0,30.06,SW,234,0.0,0.0,95,0.00,,,0.94,weatherlink.com 1.10,2013-06-09 04:02:00,
2013-06-09 00:17:00,58.8,57.0,30.07,SW,234,0.0,0.0,95,0.00,,,0.00,weatherlink.com 1.10,2013-06-09 04:17:00,
2013-06-09 00:32:00,58.7,57.0,30.07,SW,234,0.0,0.0,95,0.00,,,0.00,weatherlink.com 1.10,2013-06-09 04:32:00,
2013-06-09 00:47:00,58.5,57.0,30.07,SW,234,0.0,1.0,95,0.00,,,0.00,weatherlink.com 1.10,2013-06-09 04:47:00,
2013-06-09 01:02:00,58.2,57.0,30.08,SW,234,0.0,1.0,95,0.00,,,0.00,weatherlink.com 1.10,2013-06-09 05:02:00,
2013-06-09 01:17:00,58.0,57.0,30.09,SW,234,0.0,0.0,96,0.00,,,0.00,weatherlink.com 1.10,2013-06-09 05:17:00,
2013-06-09 01:32:00,57.9,57.0,30.08,SW,234,0.0,0.0,95,0.00,,,0.00,weatherlink.com 1.10,2013-06-09 05:32:00,
2013-06-09 01:47:00,57.7,57.0,30.08,SW,234,0.0,0.0,96,0.00,,,0.00,weatherlink.com 1.10,2013-06-09 05:47:00,
2013-06-09 02:02:00,57.5,56.0,30.09,SW,234,0.0,1.0,96,0.00,,,0.00,weatherlink.com 1.10,2013-06-09 06:02:00,
2013-06-09 02:17:00,57.4,56.0,30.09,SW,234,0.0,0.0,96,0.00,,,0.00,weatherlink.com 1.10,2013-06-09 06:17:00,
2013-06-09 02:32:00,57.6,57.0,30.09,SW,234,0.0,1.0,96,0.00,,,0.00,weatherlink.com 1.10,2013-06-09 06:32:00,
2013-06-09 02:47:00,57.5,56.0,30.09,SW,234,0.0,0.0,96,0.00,,,0.00,weatherlink.com 1.10,2013-06-09 06:47:00,
2013-06-09 03:02:00,57.4,56.0,30.09,SW,234,0.0,1.0,96,0.00,,,0.00,weatherlink.com 1.10,2013-06-09 07:02:00,
2013-06-09 03:17:00,57.4,56.0,30.09,SW,234,0.0,0.0,96,0.00,,,0.00,weatherlink.com 1.10,2013-06-09 07:17:00,
2013-06-09 03:32:00,57.1,56.0,30.09,SW,234,0.0,0.0,96,0.00,,,0.00,weatherlink.com 1.10,2013-06-09 07:32:00,
2013-06-09 03:47:00,57.0,56.0,30.09,SW,234,0.0,0.0,96,0.00,,,0.00,weatherlink.com 1.10,2013-06-09 07:47:00,
2013-06-09 04:02:00,56.8,56.0,30.10,SW,234,0.0,0.0,96,0.00,,,0.00,weatherlink.com 1.10,2013-06-09 08:02:00,
2013-06-09 04:18:00,56.6,56.0,30.10,SW,234,0.0,0.0,96,0.00,,,0.00,weatherlink.com 1.10,2013-06-09 08:18:00,
2013-06-09 04:33:00,56.2,55.0,30.10,SW,234,0.0,0.0,96,0.00,,,0.00,weatherlink.com 1.10,2013-06-09 08:33:00,
2013-06-09 04:48:00,56.1,55.0,30.10,SW,234,0.0,0.0,96,0.00,,,0.00,weatherlink.com 1.10,2013-06-09 08:48:00,
2013-06-09 05:03:00,55.8,55.0,30.11,SW,234,0.0,0.0,96,0.00,,,0.00,weatherlink.com 1.10,2013-06-09 09:03:00,
2013-06-09 05:19:00,55.5,54.0,30.11,SW,234,0.0,0.0,96,0.00,,,0.00,weatherlink.com 1.10,2013-06-09 09:19:00,
2013-06-09 05:33:00,55.2,54.0,30.12,SW,234,0.0,0.0,96,0.00,,,0.00,weatherlink.com 1.10,2013-06-09 09:33:00,
2013-06-09 05:48:00,54.9,54.0,30.13,SW,234,0.0,0.0,96,0.00,,,0.00,weatherlink.com 1.10,2013-06-09 09:48:00,
2013-06-09 06:03:00,54.9,54.0,30.13,SW,234,0.0,0.0,96,0.00,,,0.00,weatherlink.com 1.10,2013-06-09 10:03:00,
2013-06-09 06:18:00,54.8,54.0,30.14,SW,234,0.0,0.0,96,0.00,,,0.00,weatherlink.com 1.10,2013-06-09 10:18:00,
2013-06-09 06:33:00,55.0,54.0,30.15,SW,234,0.0,0.0,97,0.00,,,0.00,weatherlink.com 1.10,2013-06-09 10:33:00,
2013-06-09 06:48:00,55.3,55.0,30.15,SW,234,0.0,0.0,97,0.00,,,0.00,weatherlink.com 1.10,2013-06-09 10:48:00,
2013-06-09 07:03:00,55.9,55.0,30.16,SW,234,0.0,0.0,98,0.00,,,0.00,weatherlink.com 1.10,2013-06-09 11:03:00,
2013-06-09 07:18:00,56.8,56.0,30.16,SW,234,0.0,0.0,98,0.00,,,0.00,weatherlink.com 1.10,2013-06-09 11:18:00,
2013-06-09 07:33:00,57.8,57.0,30.16,SW,234,0.0,0.0,98,0.00,,,0.00,weatherlink.com 1.10,2013-06-09 11:33:00,
2013-06-09 07:48:00,58.7,58.0,30.16,SW,215,0.0,2.0,98,0.00,,,0.00,weatherlink.com 1.10,2013-06-09 11:48:00,
2013-06-09 08:03:00,59.5,59.0,30.16,SW,215,0.0,0.0,98,0.00,,,0.00,weatherlink.com 1.10,2013-06-09 12:03:00,
2013-06-09 08:18:00,60.5,59.0,30.16,SSW,205,0.0,2.0,96,0.00,,,0.00,weatherlink.com 1.10,2013-06-09 12:18:00,
2013-06-09 08:33:00,61.6,60.0,30.16,WNW,298,1.0,2.0,93,0.00,,,0.00,weatherlink.com 1.10,2013-06-09 12:33:00,
2013-06-09 08:48:00,62.6,58.0,30.16,West,278,0.0,8.0,86,0.00,,,0.00,weatherlink.com 1.10,2013-06-09 12:48:00,
2013-06-09 09:03:00,64.3,57.0,30.16,South,190,1.0,7.0,77,0.00,,,0.00,weatherlink.com 1.10,2013-06-09 13:03:00,
2013-06-09 09:18:00,66.1,58.0,30.16,North,351,4.0,5.0,76,0.00,,,0.00,weatherlink.com 1.10,2013-06-09 13:18:00,
2013-06-09 09:33:00,67.0,58.0,30.16,North,349,1.0,8.0,74,0.00,,,0.00,weatherlink.com 1.10,2013-06-09 13:33:00,
2013-06-09 09:48:00,67.5,57.0,30.17,North,360,3.0,4.0,70,0.00,,,0.00,weatherlink.com 1.10,2013-06-09 13:48:00,
2013-06-09 10:03:00,68.1,58.0,30.16,SW,219,0.0,6.0,70,0.00,,,0.00,weatherlink.com 1.10,2013-06-09 14:03:00,
2013-06-09 10:18:00,68.5,57.0,30.16,WNW,286,2.0,9.0,67,0.00,,,0.00,weatherlink.com 1.10,2013-06-09 14:18:00,
2013-06-09 10:33:00,68.9,56.0,30.17,WNW,286,0.0,5.0,64,0.00,,,0.00,weatherlink.com 1.10,2013-06-09 14:33:00,
2013-06-09 10:49:00,69.2,57.0,30.16,SSW,213,2.0,8.0,66,0.00,,,0.00,weatherlink.com 1.10,2013-06-09 14:49:00,
2013-06-09 11:04:00,69.9,58.0,30.16,NE,55,0.0,3.0,67,0.00,,,0.00,weatherlink.com 1.10,2013-06-09 15:04:00,
2013-06-09 11:19:00,70.3,57.0,30.16,NNW,336,3.0,8.0,63,0.00,,,0.00,weatherlink.com 1.10,2013-06-09 15:19:00,
2013-06-09 11:34:00,70.5,57.0,30.16,SW,232,1.0,7.0,63,0.00,,,0.00,weatherlink.com 1.10,2013-06-09 15:34:00,
2013-06-09 11:49:00,70.6,57.0,30.16,NW,312,0.0,5.0,62,0.00,,,0.00,weatherlink.com 1.10,2013-06-09 15:49:00,
2013-06-09 12:04:00,71.9,59.0,30.16,NNW,333,0.0,4.0,64,0.00,,,0.00,weatherlink.com 1.10,2013-06-09 16:04:00,
2013-06-09 12:19:00,73.1,57.0,30.16,West,264,4.0,7.0,58,0.00,,,0.00,weatherlink.com 1.10,2013-06-09 16:19:00,
2013-06-09 12:34:00,73.3,58.0,30.15,North,360,2.0,3.0,60,0.00,,,0.00,weatherlink.com 1.10,2013-06-09 16:34:00,
2013-06-09 12:49:00,74.1,58.0,30.15,SSW,201,0.0,7.0,57,0.00,,,0.00,weatherlink.com 1.10,2013-06-09 16:49:00,
2013-06-09 13:04:00,74.3,58.0,30.14,ESE,107,2.0,4.0,58,0.00,,,0.00,weatherlink.com 1.10,2013-06-09 17:04:00,
2013-06-09 13:19:00,74.0,60.0,30.14,North,360,1.0,3.0,62,0.00,,,0.00,weatherlink.com 1.10,2013-06-09 17:19:00,
2013-06-09 13:34:00,74.7,59.0,30.14,SSE,161,2.0,4.0,59,0.00,,,0.00,weatherlink.com 1.10,2013-06-09 17:34:00,
2013-06-09 13:49:00,75.3,60.0,30.15,SW,222,4.0,5.0,59,0.00,,,0.00,weatherlink.com 1.10,2013-06-09 17:49:00,
2013-06-09 14:04:00,75.4,57.0,30.14,SSW,210,2.0,5.0,54,0.00,,,0.00,weatherlink.com 1.10,2013-06-09 18:04:00,
2013-06-09 14:19:00,75.9,59.0,30.14,SSW,201,2.0,5.0,57,0.00,,,0.00,weatherlink.com 1.10,2013-06-09 18:19:00,
2013-06-09 14:34:00,76.4,56.0,30.14,North,355,1.0,7.0,50,0.00,,,0.00,weatherlink.com 1.10,2013-06-09 18:34:00,
2013-06-09 14:49:00,75.8,57.0,30.14,NNW,347,2.0,7.0,53,0.00,,,0.00,weatherlink.com 1.10,2013-06-09 18:49:00,
2013-06-09 15:04:00,75.4,57.0,30.13,SSW,210,2.0,4.0,53,0.00,,,0.00,weatherlink.com 1.10,2013-06-09 19:04:00,
2013-06-09 15:19:00,75.7,58.0,30.13,North,355,1.0,4.0,55,0.00,,,0.00,weatherlink.com 1.10,2013-06-09 19:19:00,
2013-06-09 15:34:00,76.0,60.0,30.13,WNW,302,0.0,3.0,57,0.00,,,0.00,weatherlink.com 1.10,2013-06-09 19:34:00,
2013-06-09 15:49:00,76.1,59.0,30.13,West,267,1.0,3.0,55,0.00,,,0.00,weatherlink.com 1.10,2013-06-09 19:49:00,
2013-06-09 16:04:00,75.7,58.0,30.12,NW,304,0.0,6.0,55,0.00,,,0.00,weatherlink.com 1.10,2013-06-09 20:04:00,
2013-06-09 16:19:00,76.2,61.0,30.12,SW,220,4.0,7.0,60,0.00,,,0.00,weatherlink.com 1.10,2013-06-09 20:19:00,
2013-06-09 16:34:00,75.8,57.0,30.12,WSW,243,1.0,3.0,53,0.00,,,0.00,weatherlink.com 1.10,2013-06-09 20:34:00,
2013-06-09 16:49:00,75.8,61.0,30.12,WSW,246,1.0,5.0,60,0.00,,,0.00,weatherlink.com 1.10,2013-06-09 20:49:00,
2013-06-09 17:04:00,76.4,58.0,30.12,SW,229,0.0,5.0,54,0.00,,,0.00,weatherlink.com 1.10,2013-06-09 21:04:00,
2013-06-09 17:19:00,76.2,61.0,30.11,SW,231,0.0,3.0,59,0.00,,,0.00,weatherlink.com 1.10,2013-06-09 21:19:00,
2013-06-09 17:34:00,76.8,61.0,30.12,SSW,211,1.0,4.0,58,0.00,,,0.00,weatherlink.com 1.10,2013-06-09 21:34:00,
2013-06-09 17:49:00,77.4,60.0,30.11,WSW,250,1.0,5.0,55,0.00,,,0.00,weatherlink.com 1.10,2013-06-09 21:49:00,
2013-06-09 18:04:00,78.7,61.0,30.12,WSW,254,1.0,3.0,55,0.00,,,0.00,weatherlink.com 1.10,2013-06-09 22:04:00,
2013-06-09 18:19:00,79.0,63.0,30.12,SW,216,0.0,4.0,58,0.00,,,0.00,weatherlink.com 1.10,2013-06-09 22:19:00,
2013-06-09 18:34:00,77.9,62.0,30.13,SW,219,0.0,1.0,58,0.00,,,0.00,weatherlink.com 1.10,2013-06-09 22:34:00,
2013-06-09 18:49:00,76.4,64.0,30.13,SW,219,0.0,2.0,66,0.00,,,0.00,weatherlink.com 1.10,2013-06-09 22:49:00,
2013-06-09 19:04:00,75.0,64.0,30.14,SW,219,0.0,2.0,69,0.00,,,0.00,weatherlink.com 1.10,2013-06-09 23:04:00,
2013-06-09 19:19:00,73.6,64.0,30.14,SW,219,0.0,0.0,71,0.00,,,0.00,weatherlink.com 1.10,2013-06-09 23:19:00,
2013-06-09 19:34:00,72.8,64.0,30.14,SW,219,0.0,0.0,73,0.00,,,0.00,weatherlink.com 1.10,2013-06-09 23:34:00,
2013-06-09 19:49:00,71.9,64.0,30.14,SW,219,0.0,0.0,76,0.00,,,0.00,weatherlink.com 1.10,2013-06-09 23:49:00,
2013-06-09 20:04:00,70.3,63.0,30.14,SW,219,0.0,0.0,78,0.00,,,0.00,weatherlink.com 1.10,2013-06-10 00:04:00,
2013-06-09 20:19:00,68.9,63.0,30.15,SW,219,0.0,0.0,81,0.00,,,0.00,weatherlink.com 1.10,2013-06-10 00:19:00,
2013-06-09 20:34:00,67.9,63.0,30.14,SW,219,0.0,0.0,83,0.00,,,0.00,weatherlink.com 1.10,2013-06-10 00:34:00,
2013-06-09 20:49:00,66.8,62.0,30.15,SW,219,0.0,0.0,85,0.00,,,0.00,weatherlink.com 1.10,2013-06-10 00:49:00,
2013-06-09 21:04:00,66.1,62.0,30.15,SW,219,0.0,0.0,85,0.00,,,0.00,weatherlink.com 1.10,2013-06-10 01:04:00,
2013-06-09 21:19:00,65.3,61.0,30.16,SW,219,0.0,0.0,85,0.00,,,0.00,weatherlink.com 1.10,2013-06-10 01:19:00,
2013-06-09 21:34:00,64.5,60.0,30.17,SW,219,0.0,0.0,86,0.00,,,0.00,weatherlink.com 1.10,2013-06-10 01:34:00,
2013-06-09 21:49:00,63.8,60.0,30.18,SW,219,0.0,0.0,86,0.00,,,0.00,weatherlink.com 1.10,2013-06-10 01:49:00,
2013-06-09 22:04:00,63.2,59.0,30.18,SW,219,0.0,0.0,87,0.00,,,0.00,weatherlink.com 1.10,2013-06-10 02:04:00,
2013-06-09 22:19:00,62.5,59.0,30.18,SW,219,0.0,0.0,89,0.00,,,0.00,weatherlink.com 1.10,2013-06-10 02:19:00,
2013-06-09 22:35:00,61.9,58.0,30.18,SW,219,0.0,0.0,88,0.00,,,0.00,weatherlink.com 1.10,2013-06-10 02:35:00,
2013-06-09 22:50:00,61.4,58.0,30.18,SW,219,0.0,0.0,89,0.00,,,0.00,weatherlink.com 1.10,2013-06-10 02:50:00,
2013-06-09 23:05:00,60.9,58.0,30.18,SW,219,0.0,0.0,90,0.00,,,0.00,weatherlink.com 1.10,2013-06-10 03:05:00,
2013-06-09 23:20:00,60.5,58.0,30.18,SW,219,0.0,0.0,90,0.00,,,0.00,weatherlink.com 1.10,2013-06-10 03:20:00,
2013-06-09 23:35:00,60.0,57.0,30.18,SW,219,0.0,0.0,91,0.00,,,0.00,weatherlink.com 1.10,2013-06-10 03:35:00,
2013-06-09 23:50:00,59.6,57.0,30.18,SW,219,0.0,0.0,91,0.00,,,0.00,weatherlink.com 1.10,2013-06-10 03:50:00,